createdAt,value
2023-01-11T00:00:39.230Z,3.17
2023-01-11T00:03:07.166Z,2.00
2023-01-11T00:05:42.392Z,2.87
2023-01-11T00:08:10.108Z,2.23
2023-01-11T00:10:37.128Z,0.67
2023-01-11T00:13:04.541Z,1.57
2023-01-11T00:15:31.743Z,2.27
2023-01-11T00:17:58.887Z,2.90
2023-01-11T00:20:26.082Z,1.07
2023-01-11T00:22:53.007Z,2.77
2023-01-11T00:25:19.866Z,1.73
2023-01-11T00:27:49.411Z,1.37
2023-01-11T00:30:17.329Z,2.87
2023-01-11T00:32:44.516Z,3.03
2023-01-11T00:35:11.382Z,1.07
2023-01-11T00:37:40.078Z,2.90
2023-01-11T00:40:07.996Z,0.97
2023-01-11T00:42:53.292Z,1.77
2023-01-11T00:45:38.664Z,1.70
2023-01-11T00:48:06.999Z,1.07
2023-01-11T00:50:36.126Z,2.57
2023-01-11T00:53:03.623Z,3.03
2023-01-11T00:55:32.020Z,2.27
2023-01-11T00:57:59.942Z,1.93
2023-01-11T01:00:28.783Z,1.07
2023-01-11T01:02:55.905Z,2.93
2023-01-11T01:05:22.965Z,1.90
2023-01-11T01:07:50.044Z,0.87
2023-01-11T01:10:18.421Z,2.67
2023-01-11T01:13:04.250Z,1.20
2023-01-11T01:15:32.520Z,1.97
2023-01-11T01:17:59.281Z,1.47
2023-01-11T01:20:26.831Z,1.20
2023-01-11T01:22:53.790Z,1.00
2023-01-11T01:25:20.699Z,1.37
2023-01-11T01:27:47.693Z,1.27
2023-01-11T01:30:14.880Z,0.87
2023-01-11T01:32:41.978Z,1.47
2023-01-11T01:35:09.283Z,0.80
2023-01-11T01:37:36.007Z,0.77
2023-01-11T01:40:03.714Z,0.80
2023-01-11T01:42:30.533Z,0.67
2023-01-11T01:45:06.746Z,0.90
2023-01-11T01:48:01.319Z,1.10
2023-01-11T01:50:37.444Z,0.77
2023-01-11T01:53:11.205Z,1.20
2023-01-11T01:55:43.451Z,0.77
2023-01-11T01:58:13.950Z,0.83
2023-01-11T02:00:44.391Z,0.80
2023-01-11T02:03:17.944Z,2.10
2023-01-11T02:05:45.962Z,0.80
2023-01-11T02:08:37.098Z,1.57
2023-01-11T02:11:24.606Z,0.87
2023-01-11T02:13:51.471Z,0.93
2023-01-11T02:16:18.287Z,2.20
2023-01-11T02:18:45.468Z,0.77
2023-01-11T02:21:25.863Z,0.70
2023-01-11T02:24:10.567Z,0.67
2023-01-11T02:26:56.243Z,2.07
2023-01-11T02:29:36.469Z,0.43
2023-01-11T02:32:09.164Z,0.77
2023-01-11T02:34:44.165Z,1.03
2023-01-11T02:37:49.750Z,0.40
2023-01-11T02:40:35.846Z,0.60
2023-01-11T02:43:27.286Z,0.40
2023-01-11T02:46:27.406Z,0.90
2023-01-11T02:49:23.303Z,1.07
2023-01-11T02:52:02.439Z,2.10
2023-01-11T02:54:31.802Z,0.80
2023-01-11T02:57:00.485Z,2.00
2023-01-11T02:59:36.265Z,4.10
2023-01-11T03:02:03.362Z,0.50
2023-01-11T03:04:30.093Z,0.37
2023-01-11T03:07:19.883Z,2.50
2023-01-11T03:09:52.509Z,0.80
2023-01-11T03:12:54.921Z,0.77
2023-01-11T03:15:21.674Z,0.40
2023-01-11T03:18:40.519Z,0.30
2023-01-11T03:21:28.889Z,1.70
2023-01-11T03:24:33.624Z,0.83
2023-01-11T03:27:08.708Z,0.80
2023-01-11T03:30:24.134Z,0.47
2023-01-11T03:33:10.433Z,0.60
2023-01-11T03:35:48.908Z,0.40
2023-01-11T03:38:30.332Z,0.60
2023-01-11T03:41:08.189Z,0.40
2023-01-11T03:43:38.175Z,1.70
2023-01-11T03:46:19.123Z,0.40
2023-01-11T03:49:18.777Z,0.57
2023-01-11T03:51:47.851Z,1.27
2023-01-11T03:54:23.918Z,0.47
2023-01-11T03:57:08.043Z,0.57
2023-01-11T03:59:35.143Z,0.63
2023-01-11T04:02:02.393Z,0.40
2023-01-11T04:04:29.354Z,0.50
2023-01-11T04:06:56.426Z,0.60
2023-01-11T04:09:23.361Z,0.60
2023-01-11T04:11:50.314Z,0.73
2023-01-11T04:14:17.140Z,0.40
2023-01-11T04:16:43.924Z,0.30
2023-01-11T04:19:10.706Z,0.73
2023-01-11T04:21:37.560Z,0.40
2023-01-11T04:24:04.388Z,1.90
2023-01-11T04:26:31.203Z,0.80
2023-01-11T04:28:58.005Z,0.53
2023-01-11T04:31:24.959Z,1.73
2023-01-11T04:33:51.979Z,0.80
2023-01-11T04:36:19.092Z,0.70
2023-01-11T04:38:46.013Z,0.50
2023-01-11T04:41:31.348Z,1.23
2023-01-11T04:43:58.642Z,1.23
2023-01-11T04:46:25.558Z,1.20
2023-01-11T04:48:52.559Z,0.60
2023-01-11T04:51:19.470Z,0.40
2023-01-11T04:53:49.116Z,1.27
2023-01-11T04:56:17.539Z,0.60
2023-01-11T04:58:44.678Z,0.63
2023-01-11T05:01:19.684Z,1.60
2023-01-11T05:03:47.276Z,0.43
2023-01-11T05:06:14.971Z,0.30
2023-01-11T05:08:46.445Z,0.50
2023-01-11T05:11:13.718Z,0.50
2023-01-11T05:13:43.576Z,0.60
2023-01-11T05:16:24.297Z,0.70
2023-01-11T05:18:56.492Z,0.40
2023-01-11T05:21:26.358Z,0.87
2023-01-11T05:23:54.204Z,0.40
2023-01-11T05:26:28.174Z,0.70
2023-01-11T05:28:57.363Z,0.30
2023-01-11T05:31:24.484Z,0.93
2023-01-11T05:33:51.589Z,0.70
2023-01-11T05:36:22.972Z,0.40
2023-01-11T05:38:52.291Z,0.60
2023-01-11T05:41:21.340Z,0.33
2023-01-11T05:44:08.557Z,0.50
2023-01-11T05:46:37.146Z,0.30
2023-01-11T05:49:04.472Z,0.40
2023-01-11T05:51:32.749Z,0.60
2023-01-11T05:54:01.292Z,0.30
2023-01-11T05:56:29.075Z,0.30
2023-01-11T05:58:56.001Z,0.60
2023-01-11T06:01:24.458Z,0.70
2023-01-11T06:03:51.792Z,1.40
2023-01-11T06:06:19.890Z,1.00
2023-01-11T06:08:46.745Z,0.30
2023-01-11T06:11:14.910Z,0.60
2023-01-11T06:13:42.351Z,0.90
2023-01-11T06:16:17.564Z,1.57
2023-01-11T06:18:47.150Z,0.60
2023-01-11T06:21:15.374Z,0.60
2023-01-11T06:23:45.041Z,1.07
2023-01-11T06:26:15.131Z,0.60
2023-01-11T06:28:42.841Z,1.17
2023-01-11T06:31:09.774Z,1.50
2023-01-11T06:33:37.067Z,0.80
2023-01-11T06:36:06.926Z,1.97
2023-01-11T06:38:33.990Z,0.60
2023-01-11T06:41:02.745Z,1.03
2023-01-11T06:43:31.010Z,0.40
2023-01-11T06:45:58.988Z,1.57
2023-01-11T06:48:26.720Z,0.70
2023-01-11T06:50:55.366Z,0.67
2023-01-11T06:53:23.432Z,0.43
2023-01-11T06:55:55.126Z,0.60
2023-01-11T06:58:23.808Z,0.53
2023-01-11T07:00:52.659Z,1.40
2023-01-11T07:03:20.671Z,0.97
2023-01-11T07:05:47.675Z,1.37
2023-01-11T07:08:15.123Z,1.13
2023-01-11T07:10:43.791Z,0.50
2023-01-11T07:13:12.283Z,1.00
2023-01-11T07:15:39.429Z,0.60
2023-01-11T07:18:06.272Z,0.77
2023-01-11T07:20:33.252Z,0.57
2023-01-11T07:23:00.984Z,1.73
2023-01-11T07:25:29.244Z,1.57
2023-01-11T07:28:01.803Z,1.00
2023-01-11T07:30:31.568Z,0.93
2023-01-11T07:32:59.801Z,1.00
2023-01-11T07:35:29.020Z,0.90
2023-01-11T07:37:56.152Z,0.93
2023-01-11T07:40:23.024Z,0.83
2023-01-11T07:43:09.985Z,0.97
2023-01-11T07:45:45.911Z,2.47
2023-01-11T07:48:14.374Z,0.70
2023-01-11T07:50:44.494Z,1.33
2023-01-11T07:53:12.329Z,1.50
2023-01-11T07:55:39.938Z,1.50
2023-01-11T07:58:08.804Z,1.93
2023-01-11T08:00:35.988Z,1.50
2023-01-11T08:03:03.288Z,1.27
2023-01-11T08:05:30.527Z,1.37
2023-01-11T08:07:57.849Z,0.97
2023-01-11T08:10:25.267Z,1.03
2023-01-11T08:13:10.672Z,1.13
2023-01-11T08:15:37.622Z,1.33
2023-01-11T08:18:05.972Z,1.67
2023-01-11T08:20:33.115Z,2.27
2023-01-11T08:23:06.589Z,0.87
2023-01-11T08:25:33.898Z,1.30
2023-01-11T08:28:06.239Z,1.50
2023-01-11T08:30:33.981Z,1.50
2023-01-11T08:33:02.114Z,1.77
2023-01-11T08:35:29.458Z,1.80
2023-01-11T08:37:56.559Z,2.57
2023-01-11T08:40:25.444Z,5.33
2023-01-11T08:42:58.535Z,3.67
2023-01-11T08:45:25.744Z,3.77
2023-01-11T08:47:53.270Z,3.87
2023-01-11T08:50:22.113Z,3.40
2023-01-11T08:52:50.802Z,4.20
2023-01-11T08:55:18.871Z,5.77
2023-01-11T08:57:46.150Z,5.87
2023-01-11T09:00:13.812Z,6.17
2023-01-11T09:02:40.801Z,4.60
2023-01-11T09:05:08.144Z,4.50
2023-01-11T09:07:35.014Z,5.00
2023-01-11T09:10:02.076Z,5.27
2023-01-11T09:12:28.952Z,7.60
2023-01-11T09:14:55.862Z,6.50
2023-01-11T09:17:22.852Z,5.83
2023-01-11T09:19:50.529Z,5.43
2023-01-11T09:22:17.533Z,6.07
2023-01-11T09:24:44.418Z,5.30
2023-01-11T09:27:12.960Z,5.37
2023-01-11T09:29:40.091Z,5.87
2023-01-11T09:32:07.191Z,6.67
2023-01-11T09:34:34.983Z,8.10
2023-01-11T09:37:03.993Z,7.33
2023-01-11T09:39:31.143Z,6.80
2023-01-11T09:42:37.560Z,9.67
2023-01-11T09:45:23.514Z,9.57
2023-01-11T09:48:30.810Z,7.80
2023-01-11T09:50:58.794Z,8.37
2023-01-11T09:53:35.120Z,10.73
2023-01-11T09:56:05.844Z,7.80
2023-01-11T09:58:42.768Z,8.87
2023-01-11T10:01:32.928Z,10.03
2023-01-11T10:04:20.530Z,9.00
2023-01-11T10:07:11.600Z,9.97
2023-01-11T10:18:41.618Z,14.23
2023-01-11T10:19:41.034Z,10.77
2023-01-11T10:22:18.030Z,9.37
2023-01-11T10:25:17.074Z,10.30
2023-01-11T10:27:59.394Z,10.40
2023-01-11T10:30:42.273Z,9.90
2023-01-11T10:33:38.512Z,11.50
2023-01-11T10:36:52.212Z,10.67
2023-01-11T10:39:33.241Z,11.33
2023-01-11T10:42:15.630Z,11.50
2023-01-11T10:44:45.832Z,11.53
2023-01-11T10:47:19.672Z,12.93
2023-01-11T10:49:56.320Z,14.60
2023-01-11T10:52:41.648Z,12.63
2023-01-11T10:55:14.439Z,13.77
2023-01-11T10:57:59.969Z,13.33
2023-01-11T11:00:57.156Z,14.43
2023-01-11T11:03:51.695Z,16.70
2023-01-11T11:06:34.678Z,11.87
2023-01-11T11:09:25.444Z,17.53
2023-01-11T11:12:08.447Z,16.33
2023-01-11T11:14:50.406Z,15.63
2023-01-11T11:17:26.267Z,12.10
2023-01-11T11:19:53.546Z,15.03
2023-01-11T11:22:20.997Z,14.93
2023-01-11T11:25:05.041Z,12.97
2023-01-11T11:27:39.992Z,16.07
2023-01-11T11:30:11.325Z,15.97
2023-01-11T11:32:50.415Z,15.57
2023-01-11T11:35:37.901Z,19.20
2023-01-11T11:38:05.503Z,17.00
2023-01-11T11:40:36.368Z,24.47
2023-01-11T11:43:23.550Z,17.97
2023-01-11T11:46:02.153Z,17.73
2023-01-11T11:48:31.848Z,19.67
2023-01-11T11:51:05.379Z,19.60
2023-01-11T11:53:55.948Z,21.73
2023-01-11T11:56:34.642Z,21.73
2023-01-11T11:59:12.369Z,17.17
2023-01-11T12:01:46.829Z,21.13
2023-01-11T12:04:23.631Z,21.00
2023-01-11T12:07:20.721Z,17.60
2023-01-11T12:09:54.978Z,17.33
2023-01-11T12:12:26.268Z,18.83
2023-01-11T12:15:09.020Z,18.20
2023-01-11T12:17:36.034Z,17.53
2023-01-11T12:20:03.328Z,20.77
2023-01-11T12:22:30.249Z,18.80
2023-01-11T12:25:07.928Z,26.90
2023-01-11T12:27:57.948Z,16.73
2023-01-11T12:30:28.591Z,16.60
2023-01-11T12:33:07.538Z,16.33
2023-01-11T12:35:48.265Z,12.87
2023-01-11T12:38:21.226Z,19.87
2023-01-11T12:41:01.709Z,16.03
2023-01-11T12:43:47.394Z,21.63
2023-01-11T12:46:46.508Z,15.23
2023-01-11T12:49:51.781Z,17.30
2023-01-11T12:52:39.334Z,12.03
2023-01-11T12:55:37.163Z,10.20
2023-01-11T12:58:14.616Z,16.93
2023-01-11T13:00:55.745Z,10.90
2023-01-11T13:03:43.152Z,16.03
2023-01-11T13:06:18.224Z,11.47
2023-01-11T13:09:00.749Z,13.13
2023-01-11T13:11:53.472Z,11.13
2023-01-11T13:14:48.571Z,15.43
2023-01-11T13:17:48.282Z,9.00
2023-01-11T13:20:59.537Z,12.67
2023-01-11T13:23:48.978Z,11.23
2023-01-11T13:26:43.863Z,11.10
2023-01-11T13:29:18.081Z,12.23
2023-01-11T13:31:47.572Z,11.53
2023-01-11T13:34:55.963Z,13.57
2023-01-11T13:37:47.348Z,12.33
2023-01-11T13:40:25.151Z,13.67
2023-01-11T13:43:07.803Z,11.90
2023-01-11T13:46:03.791Z,16.90
2023-01-11T13:48:49.072Z,14.53
2023-01-11T13:51:27.068Z,8.63
2023-01-11T13:53:58.969Z,10.73
2023-01-11T13:56:43.404Z,12.33
2023-01-11T13:59:36.567Z,8.43
2023-01-11T14:02:03.732Z,15.37
2023-01-11T14:04:51.867Z,11.17
2023-01-11T14:07:18.711Z,10.77
2023-01-11T14:10:17.513Z,9.33
2023-01-11T14:13:56.272Z,10.07
2023-01-11T14:16:30.502Z,9.00
2023-01-11T14:19:43.766Z,12.10
2023-01-11T14:22:41.205Z,9.10
2023-01-11T14:25:21.396Z,7.73
2023-01-11T14:28:01.139Z,10.10
2023-01-11T14:30:40.880Z,10.07
2023-01-11T14:33:45.051Z,15.27
2023-01-11T14:36:26.498Z,14.80
2023-01-11T14:39:20.901Z,10.93
2023-01-11T14:42:09.411Z,10.97
2023-01-11T14:44:45.471Z,17.37
2023-01-11T14:47:31.081Z,7.27
2023-01-11T14:50:31.794Z,10.67
2023-01-11T14:53:01.416Z,7.57
2023-01-11T14:55:31.987Z,9.80
2023-01-11T14:58:17.650Z,13.07
2023-01-11T15:00:44.622Z,6.53
2023-01-11T15:03:11.368Z,10.07
2023-01-11T15:05:44.994Z,10.83
2023-01-11T15:08:14.688Z,17.03
2023-01-11T15:10:50.709Z,10.33
2023-01-11T15:13:22.010Z,9.23
2023-01-11T15:16:07.959Z,12.07
2023-01-11T15:18:44.703Z,10.17
2023-01-11T15:21:21.366Z,9.07
2023-01-11T15:23:55.622Z,11.03
2023-01-11T15:26:25.447Z,8.77
2023-01-11T15:29:03.023Z,9.20
2023-01-11T15:31:58.811Z,9.97
2023-01-11T15:34:39.485Z,10.10
2023-01-11T15:37:25.835Z,11.93
2023-01-11T15:40:16.895Z,9.07
2023-01-11T15:43:22.024Z,11.23
2023-01-11T15:46:32.203Z,14.50
2023-01-11T15:49:32.827Z,17.87
2023-01-11T15:52:37.684Z,15.10
2023-01-11T15:55:23.232Z,12.27
2023-01-11T15:58:06.272Z,19.03
2023-01-11T16:00:45.270Z,11.07
2023-01-11T16:03:49.451Z,11.67
2023-01-11T16:06:16.590Z,8.33
2023-01-11T16:09:21.208Z,13.60
2023-01-11T16:11:51.015Z,11.30
2023-01-11T16:14:23.682Z,10.33
2023-01-11T16:16:55.726Z,11.23
2023-01-11T16:19:26.380Z,14.33
2023-01-11T16:22:01.817Z,16.20
2023-01-11T16:24:33.261Z,12.83
2023-01-11T16:27:03.593Z,14.20
2023-01-11T16:29:36.197Z,11.73
2023-01-11T16:32:29.745Z,9.90
2023-01-11T16:34:56.576Z,12.17
2023-01-11T16:37:30.391Z,13.00
2023-01-11T16:40:21.112Z,14.87
2023-01-11T16:42:58.483Z,11.97
2023-01-11T16:45:46.877Z,15.97
2023-01-11T16:48:21.303Z,13.87
2023-01-11T16:51:09.647Z,17.37
2023-01-11T16:53:39.115Z,13.33
2023-01-11T16:56:13.231Z,13.80
2023-01-11T16:58:40.522Z,13.97
2023-01-11T17:01:08.932Z,16.13
2023-01-11T17:04:01.488Z,11.97
2023-01-11T17:06:34.747Z,12.93
2023-01-11T17:09:10.885Z,16.33
2023-01-11T17:11:45.627Z,10.27
2023-01-11T17:14:58.051Z,8.73
2023-01-11T17:17:27.374Z,18.47
2023-01-11T17:19:56.773Z,20.17
2023-01-11T17:22:32.528Z,13.63
2023-01-11T17:25:04.632Z,14.43
2023-01-11T17:27:40.681Z,13.43
2023-01-11T17:30:20.976Z,12.70
2023-01-11T17:32:50.923Z,17.70
2023-01-11T17:35:25.885Z,16.47
2023-01-11T17:37:58.237Z,13.37
2023-01-11T17:40:38.587Z,17.70
2023-01-11T17:43:42.977Z,14.23
2023-01-11T17:46:19.540Z,12.90
2023-01-11T17:49:00.725Z,15.67
2023-01-11T17:51:33.554Z,16.27
2023-01-11T17:54:00.712Z,16.73
2023-01-11T17:56:39.214Z,15.17
2023-01-11T17:59:12.072Z,17.00
2023-01-11T18:01:39.687Z,19.57
2023-01-11T18:04:19.131Z,15.73
2023-01-11T18:06:48.501Z,16.80
2023-01-11T18:09:29.042Z,15.03
2023-01-11T18:12:34.347Z,14.53
2023-01-11T18:15:04.684Z,14.20
2023-01-11T18:17:40.267Z,19.03
2023-01-11T18:20:32.626Z,13.07
2023-01-11T18:23:04.637Z,18.93
2023-01-11T18:25:34.717Z,18.47
2023-01-11T18:28:26.186Z,11.87
2023-01-11T18:30:57.612Z,17.33
2023-01-11T18:33:27.545Z,14.47
2023-01-11T18:36:00.943Z,16.83
2023-01-11T18:38:34.068Z,19.10
2023-01-11T18:41:26.628Z,18.30
2023-01-11T18:43:54.914Z,13.27
2023-01-11T18:46:22.225Z,14.87
2023-01-11T18:48:49.235Z,14.50
2023-01-11T18:51:21.153Z,13.67
2023-01-11T18:53:47.979Z,17.60
2023-01-11T18:56:16.327Z,16.70
2023-01-11T18:58:43.494Z,17.90
2023-01-11T19:01:10.963Z,13.87
2023-01-11T19:03:37.914Z,12.33
2023-01-11T19:06:05.903Z,17.33
2023-01-11T19:08:33.108Z,17.57
2023-01-11T19:10:59.932Z,15.50
2023-01-11T19:13:26.747Z,17.33
2023-01-11T19:15:53.738Z,17.33
2023-01-11T19:18:20.609Z,12.50
2023-01-11T19:20:47.398Z,15.07
2023-01-11T19:23:14.269Z,18.10
2023-01-11T19:25:41.651Z,15.20
2023-01-11T19:28:08.580Z,15.03
2023-01-11T19:30:35.494Z,14.10
2023-01-11T19:33:02.558Z,13.90
2023-01-11T19:35:29.431Z,11.17
2023-01-11T19:37:56.808Z,12.90
2023-01-11T19:40:23.724Z,16.73
2023-01-11T19:42:52.525Z,15.33
2023-01-11T19:45:19.503Z,11.20
2023-01-11T19:47:47.567Z,8.93
2023-01-11T19:50:16.911Z,10.93
2023-01-11T19:52:45.184Z,17.53
2023-01-11T19:55:12.257Z,12.10
2023-01-11T19:57:40.734Z,14.20
2023-01-11T20:00:08.705Z,12.37
2023-01-11T20:02:35.996Z,14.47
2023-01-11T20:05:03.231Z,17.40
2023-01-11T20:07:30.167Z,12.70
2023-01-11T20:09:57.238Z,12.60
2023-01-11T20:12:24.073Z,14.83
2023-01-11T20:14:50.955Z,9.27
2023-01-11T20:17:21.131Z,10.70
2023-01-11T20:19:54.490Z,9.10
2023-01-11T20:22:25.296Z,11.50
2023-01-11T20:24:52.324Z,9.63
2023-01-11T20:27:20.153Z,11.30
2023-01-11T20:29:47.946Z,10.20
2023-01-11T20:32:39.297Z,10.43
2023-01-11T20:35:03.276Z,10.67
2023-01-11T20:37:30.707Z,14.10
2023-01-11T20:39:57.671Z,9.10
2023-01-11T20:42:24.755Z,11.20
2023-01-11T20:44:51.717Z,10.73
2023-01-11T20:47:19.020Z,14.13
2023-01-11T20:49:45.877Z,8.90
2023-01-11T20:52:12.695Z,10.67
2023-01-11T20:54:39.675Z,12.47
2023-01-11T20:57:12.487Z,12.67
2023-01-11T20:59:39.653Z,11.10
2023-01-11T21:02:07.648Z,17.50
2023-01-11T21:04:35.787Z,14.27
2023-01-11T21:07:02.860Z,14.37
2023-01-11T21:09:30.283Z,10.10
2023-01-11T21:11:57.462Z,10.03
2023-01-11T21:14:24.484Z,9.80
2023-01-11T21:16:54.917Z,15.23
2023-01-11T21:19:21.946Z,8.37
2023-01-11T21:21:49.797Z,9.40
2023-01-11T21:24:16.951Z,11.33
2023-01-11T21:26:46.971Z,10.37
2023-01-11T21:29:13.984Z,11.90
2023-01-11T21:31:41.858Z,6.87
2023-01-11T21:34:11.947Z,8.60
2023-01-11T21:36:39.487Z,11.97
2023-01-11T21:39:06.483Z,8.47
2023-01-11T21:41:52.588Z,12.50
2023-01-11T21:44:21.302Z,9.03
2023-01-11T21:46:49.007Z,10.10
2023-01-11T21:49:16.644Z,9.00
2023-01-11T21:51:43.715Z,11.67
2023-01-11T21:54:13.501Z,11.60
2023-01-11T21:56:41.908Z,11.70
2023-01-11T21:59:09.348Z,10.70
2023-01-11T22:01:37.164Z,9.03
2023-01-11T22:04:09.033Z,9.20
2023-01-11T22:06:54.827Z,11.53
2023-01-11T22:09:25.112Z,9.87
2023-01-11T22:11:52.039Z,10.27
2023-01-11T22:14:19.207Z,10.33
2023-01-11T22:16:46.209Z,16.20
2023-01-11T22:19:13.641Z,12.23
2023-01-11T22:21:40.419Z,9.37
2023-01-11T22:24:10.416Z,10.60
2023-01-11T22:26:38.848Z,12.13
2023-01-11T22:29:12.525Z,12.00
2023-01-11T22:31:42.896Z,9.27
2023-01-11T22:34:11.245Z,14.00
2023-01-11T22:36:38.241Z,8.63
2023-01-11T22:39:05.347Z,12.00
2023-01-11T22:41:32.467Z,12.33
2023-01-11T22:43:59.435Z,12.13
2023-01-11T22:46:27.722Z,6.20
2023-01-11T22:48:54.969Z,8.73
2023-01-11T22:51:24.856Z,11.80
2023-01-11T22:53:53.186Z,12.27
2023-01-11T22:56:22.312Z,8.90
2023-01-11T22:58:52.258Z,11.60
2023-01-11T23:01:38.139Z,10.50
2023-01-11T23:04:06.607Z,14.67
2023-01-11T23:06:35.678Z,13.77
2023-01-11T23:09:02.987Z,12.50
2023-01-11T23:11:51.386Z,14.53
2023-01-11T23:14:19.348Z,11.47
2023-01-11T23:16:48.289Z,14.93
2023-01-11T23:19:18.272Z,9.40
2023-01-11T23:21:45.728Z,10.07
2023-01-11T23:24:14.037Z,10.47
2023-01-11T23:26:40.951Z,10.27
2023-01-11T23:29:07.801Z,7.77
2023-01-11T23:31:35.395Z,11.27
2023-01-11T23:34:03.755Z,9.60
2023-01-11T23:36:33.204Z,11.30
2023-01-11T23:39:00.456Z,9.80
2023-01-11T23:41:46.209Z,7.03
2023-01-11T23:44:15.152Z,11.47
2023-01-11T23:47:00.809Z,9.13
2023-01-11T23:49:28.611Z,9.07
2023-01-11T23:51:55.914Z,12.77
2023-01-11T23:54:25.419Z,10.10
2023-01-11T23:56:52.210Z,13.17
2023-01-11T23:59:19.207Z,8.53
